Time;durP1;ratioP1;P1;durP2;ratioP2;P2;SDS_P1;SDS_P2;PMS_P1;PMS_P2;Temp;Humidity;BMP_temperature;BMP_pressure;BME280_temperature;BME280_humidity;BME280_pressure;Samples;Min_cycle;Max_cycle;Signal;HPM_P1;HPM_P2
2023/05/06 00:01:24;;;;;;;;;;;13.60;99.90;;;;;;4991235;28;19924;-71
2023/05/06 00:03:50;;;;;;;;;;;13.70;99.90;;;;;;4990509;28;20001;-71
2023/05/06 00:06:16;;;;;;;;;;;13.60;99.90;;;;;;4987643;28;20413;-70
2023/05/06 00:08:41;;;;;;;;;;;13.60;99.90;;;;;;5002134;28;19910;-71
2023/05/06 00:11:07;;;;;;;;;;;13.60;99.90;;;;;;4976466;28;19941;-70
2023/05/06 00:13:33;;;;;;;;;;;;;;;;;;4992085;28;19910;-71
2023/05/06 00:15:59;;;;;;;;;;;;;;;;;;4991145;28;19964;-70
2023/05/06 00:18:25;;;;;;;;;;;;;;;;;;4992087;28;19906;-72
2023/05/06 00:20:51;;;;;;;;;;;;;;;;;;4991569;28;19905;-70
2023/05/06 00:23:16;;;;;;;;;;;;;;;;;;4998893;28;19909;-70
2023/05/06 00:25:42;;;;;;;;;;;;;;;;;;5010933;28;20262;-70
2023/05/06 00:28:08;;;;;;;;;;;;;;;;;;4997764;28;19906;-70
2023/05/06 00:30:34;;;;;;;;;;;;;;;;;;4996677;28;19905;-70
2023/05/06 00:33:00;;;;;;;;;;;;;;;;;;5011145;28;19909;-70
2023/05/06 00:35:26;;;;;;;;;;;;;;;;;;5012049;28;19913;-70
2023/05/06 00:37:52;;;;;;;;;;;;;;;;;;5002798;28;19909;-70
2023/05/06 00:40:18;;;;;;;;;;;;;;;;;;5003618;28;20277;-70
2023/05/06 00:42:43;;;;;;;;;;;;;;;;;;5012517;28;19943;-70
2023/05/06 00:45:09;;;;;;;;;;;;;;;;;;4997514;28;19914;-70
2023/05/06 00:47:35;;;;;;;;;;;;;;;;;;4995322;28;19909;-71
2023/05/06 00:50:01;;;;;;;;;;;;;;;;;;4990339;28;19906;-70
2023/05/06 00:52:27;;;;;;;;;;;;;;;;;;4986855;28;20362;-70
2023/05/06 00:54:53;;;;;;;;;;;;;;;;;;4994012;28;19913;-70
2023/05/06 00:57:19;;;;;;;;;;;;;;;;;;5014916;28;19917;-70
2023/05/06 00:59:44;;;;;;;;;;;;;;;;;;4997437;28;19940;-70
2023/05/06 01:02:10;;;;;;;;;;;;;;;;;;4994833;28;19921;-70
2023/05/06 01:04:36;;;;;;;;;;;;;;;;;;4994843;28;20350;-69
2023/05/06 01:07:02;;;;;;;;;;;;;;;;;;4994852;28;19915;-69
2023/05/06 01:09:28;;;;;;;;;;;;;;;;;;4992142;28;21509;-69
2023/05/06 01:11:54;;;;;;;;;;;;;;;;;;5001809;28;19952;-70
2023/05/06 01:14:20;;;;;;;;;;;;;;;;;;5014778;28;19995;-70
2023/05/06 01:16:46;;;;;;;;;;;;;;;;;;5013601;28;20277;-70
2023/05/06 01:19:12;;;;;;;;;;;;;;;;;;5014696;28;19906;-70
2023/05/06 01:21:40;;;;;;;;;;;;;;;;;;5014113;28;19996;-70
2023/05/06 01:24:06;;;;;;;;;;;;;;;;;;5014895;28;20246;-70
2023/05/06 01:26:32;;;;;;;;;;;;;;;;;;5010168;28;19984;-70
2023/05/06 01:28:58;;;;;;;;;;;;;;;;;;4995197;28;19948;-70
2023/05/06 01:31:24;;;;;;;;;;;13.20;99.90;;;;;;4997119;28;19906;-70
2023/05/06 01:33:58;;;;;;;;;;;13.20;99.90;;;;;;5013696;28;19914;-70
2023/05/06 01:36:44;;;;;;;;;;;13.10;99.90;;;;;;5014235;28;19944;-70
2023/05/06 01:39:19;;;;;;;;;;;13.00;99.90;;;;;;5014842;28;19909;-70
2023/05/06 01:41:47;;;;;;;;;;;13.00;99.90;;;;;;5013063;28;19913;-70
2023/05/06 01:44:13;;;;;;;;;;;13.00;99.90;;;;;;4993076;28;20396;-69
2023/05/06 01:46:39;;;;;;;;;;;12.90;99.90;;;;;;5008087;28;19913;-70
2023/05/06 01:49:07;;;;;;;;;;;12.90;99.90;;;;;;5013703;28;19906;-71
2023/05/06 01:51:33;;;;;;;;;;;12.90;99.90;;;;;;5014177;28;19906;-70
2023/05/06 01:53:58;;;;;;;;;;;12.90;99.90;;;;;;5012612;28;19906;-70
2023/05/06 01:56:25;;;;;;;;;;;12.90;99.90;;;;;;5013054;28;20007;-71
2023/05/06 01:58:51;;;;;;;;;;;12.90;99.90;;;;;;5002325;28;19913;-70
2023/05/06 02:01:16;;;;;;;;;;;12.90;99.90;;;;;;4975792;28;19936;-71
2023/05/06 02:03:42;;;;;;;;;;;13.00;99.90;;;;;;4997174;28;19917;-70
2023/05/06 02:06:07;;;;;;;;;;;13.00;99.90;;;;;;5012836;28;19906;-70
2023/05/06 02:08:34;;;;;;;;;;;13.00;99.90;;;;;;5012633;28;20016;-70
2023/05/06 02:11:00;;;;;;;;;;;13.00;99.90;;;;;;4998496;28;19945;-70
2023/05/06 02:13:25;;;;;;;;;;;13.10;99.90;;;;;;5012693;28;19906;-69
2023/05/06 02:15:51;;;;;;;;;;;13.00;99.90;;;;;;5011936;28;19910;-69
2023/05/06 02:18:17;;;;;;;;;;;13.00;99.90;;;;;;5010974;28;19916;-71
2023/05/06 02:20:43;;;;;;;;;;;13.00;99.90;;;;;;4993317;28;20003;-70
2023/05/06 02:23:08;;;;;;;;;;;13.00;99.90;;;;;;4984321;28;19932;-71
2023/05/06 02:25:34;;;;;;;;;;;13.00;99.90;;;;;;5009720;28;19932;-70
2023/05/06 02:27:59;;;;;;;;;;;13.00;99.90;;;;;;4999894;28;19909;-70
2023/05/06 02:30:25;;;;;;;;;;;13.00;99.90;;;;;;4993918;28;19913;-70
2023/05/06 02:32:50;;;;;;;;;;;13.00;99.90;;;;;;4993174;28;19906;-70
2023/05/06 02:35:16;;;;;;;;;;;13.00;99.90;;;;;;4990864;28;19925;-70
2023/05/06 02:37:41;;;;;;;;;;;12.90;99.90;;;;;;5001713;28;19910;-71
2023/05/06 02:40:08;;;;;;;;;;;12.90;99.90;;;;;;5013295;28;19935;-70
2023/05/06 02:42:34;;;;;;;;;;;13.00;99.90;;;;;;5009408;28;20274;-70
2023/05/06 02:45:00;;;;;;;;;;;12.90;99.90;;;;;;4992942;28;20026;-69
2023/05/06 02:47:25;;;;;;;;;;;12.90;99.90;;;;;;4993288;28;19912;-70
2023/05/06 02:49:51;;;;;;;;;;;13.00;99.90;;;;;;4992748;28;19906;-69
2023/05/06 02:52:16;;;;;;;;;;;12.90;99.90;;;;;;4987967;28;19928;-71
2023/05/06 02:54:42;;;;;;;;;;;12.90;99.90;;;;;;5007958;28;19964;-71
2023/05/06 02:57:07;;;;;;;;;;;12.90;99.90;;;;;;5003864;28;19945;-70
2023/05/06 02:59:33;;;;;;;;;;;12.90;99.90;;;;;;4993821;28;20285;-70
2023/05/06 03:01:59;;;;;;;;;;;12.90;99.90;;;;;;4991803;28;20648;-71
2023/05/06 03:04:25;;;;;;;;;;;12.90;99.90;;;;;;4993209;28;20000;-70
2023/05/06 03:06:50;;;;;;;;;;;12.90;99.90;;;;;;4992289;28;19905;-71
2023/05/06 03:09:15;;;;;;;;;;;12.90;99.90;;;;;;4989880;28;20251;-71
2023/05/06 03:11:41;;;;;;;;;;;12.90;99.90;;;;;;4999025;28;19920;-71
2023/05/06 03:14:06;;;;;;;;;;;12.90;99.90;;;;;;5010375;28;20019;-70
2023/05/06 03:16:32;;;;;;;;;;;12.90;99.90;;;;;;4993146;28;19910;-69
2023/05/06 03:18:57;;;;;;;;;;;12.90;99.90;;;;;;4991825;28;19906;-69
2023/05/06 03:21:23;;;;;;;;;;;12.90;99.90;;;;;;4993686;28;19964;-70
2023/05/06 03:23:48;;;;;;;;;;;12.90;99.90;;;;;;4991274;28;19910;-70
2023/05/06 03:26:14;;;;;;;;;;;12.90;99.90;;;;;;4993092;28;19906;-70
2023/05/06 03:28:41;;;;;;;;;;;12.80;99.90;;;;;;4988805;28;19917;-71
2023/05/06 03:31:07;;;;;;;;;;;12.80;99.90;;;;;;5012491;28;19909;-71
2023/05/06 03:33:32;;;;;;;;;;;12.80;99.90;;;;;;5011637;28;19982;-70
2023/05/06 03:35:58;;;;;;;;;;;12.80;99.90;;;;;;5011458;28;19909;-71
2023/05/06 03:38:23;;;;;;;;;;;12.80;99.90;;;;;;5011805;28;20250;-71
2023/05/06 03:40:49;;;;;;;;;;;12.80;99.90;;;;;;5011585;28;19913;-70
2023/05/06 03:43:15;;;;;;;;;;;12.80;99.90;;;;;;4998808;28;20000;-70
2023/05/06 03:45:41;;;;;;;;;;;12.80;99.90;;;;;;4999958;28;20346;-70
2023/05/06 03:48:07;;;;;;;;;;;12.80;99.90;;;;;;5011914;28;19906;-69
2023/05/06 03:50:32;;;;;;;;;;;12.80;99.90;;;;;;5012470;28;19913;-70
2023/05/06 03:52:58;;;;;;;;;;;12.80;99.90;;;;;;5009755;28;20422;-69
2023/05/06 03:55:23;;;;;;;;;;;12.70;99.90;;;;;;4992736;28;19927;-69
2023/05/06 03:57:49;;;;;;;;;;;12.70;99.90;;;;;;4991603;28;20317;-69
2023/05/06 04:00:14;;;;;;;;;;;12.70;99.90;;;;;;4988061;28;19913;-70
2023/05/06 04:02:41;;;;;;;;;;;12.60;99.90;;;;;;5005552;28;19918;-70
2023/05/06 04:05:07;;;;;;;;;;;12.50;99.90;;;;;;5011957;28;19909;-70
2023/05/06 04:07:32;;;;;;;;;;;12.50;99.90;;;;;;5011621;28;19992;-70
2023/05/06 04:09:58;;;;;;;;;;;12.50;99.90;;;;;;5002714;28;19909;-70
2023/05/06 04:12:23;;;;;;;;;;;12.40;99.90;;;;;;4993134;28;19917;-71
2023/05/06 04:14:49;;;;;;;;;;;12.40;99.90;;;;;;4995804;28;19920;-71
2023/05/06 04:17:14;;;;;;;;;;;12.50;99.90;;;;;;4993149;28;20235;-71
2023/05/06 04:19:40;;;;;;;;;;;12.30;99.90;;;;;;5015056;28;19952;-71
2023/05/06 04:22:06;;;;;;;;;;;12.30;99.90;;;;;;5015588;28;19906;-70
2023/05/06 04:24:32;;;;;;;;;;;12.30;99.90;;;;;;5015537;28;19967;-71
2023/05/06 04:26:58;;;;;;;;;;;12.30;99.90;;;;;;5010430;28;20629;-72
2023/05/06 04:29:24;;;;;;;;;;;12.20;99.90;;;;;;4996339;28;19941;-70
2023/05/06 04:31:50;;;;;;;;;;;12.30;99.90;;;;;;4994853;28;19909;-70
2023/05/06 04:34:16;;;;;;;;;;;12.20;99.90;;;;;;5001494;28;20327;-70
2023/05/06 04:36:42;;;;;;;;;;;12.20;99.90;;;;;;5008669;28;19910;-70
2023/05/06 04:39:09;;;;;;;;;;;;;;;;;;5014778;28;20413;-70
2023/05/06 04:41:35;;;;;;;;;;;;;;;;;;5015112;28;19956;-71
2023/05/06 04:44:02;;;;;;;;;;;;;;;;;;4999737;28;19906;-71
2023/05/06 04:46:28;;;;;;;;;;;;;;;;;;5009963;28;19905;-71
2023/05/06 04:48:55;;;;;;;;;;;;;;;;;;5006250;28;20350;-71
2023/05/06 04:51:21;;;;;;;;;;;;;;;;;;5007753;28;19948;-71
2023/05/06 04:53:47;;;;;;;;;;;;;;;;;;4997944;28;19945;-70
2023/05/06 04:56:13;;;;;;;;;;;;;;;;;;5014862;28;20346;-70
2023/05/06 04:58:39;;;;;;;;;;;;;;;;;;5005957;28;19914;-70
2023/05/06 05:01:05;;;;;;;;;;;;;;;;;;4994440;28;20384;-69
2023/05/06 05:03:31;;;;;;;;;;;;;;;;;;4995024;28;20009;-69
2023/05/06 05:05:56;;;;;;;;;;;;;;;;;;4994634;28;20492;-69
2023/05/06 05:08:22;;;;;;;;;;;;;;;;;;4994698;28;19905;-70
2023/05/06 05:10:48;;;;;;;;;;;;;;;;;;4991036;28;19952;-70
2023/05/06 05:13:14;;;;;;;;;;;;;;;;;;5014701;28;19952;-71
2023/05/06 05:15:40;;;;;;;;;;;;;;;;;;5014374;28;20412;-70
2023/05/06 05:18:06;;;;;;;;;;;;;;;;;;5014614;28;19917;-70
2023/05/06 05:20:32;;;;;;;;;;;;;;;;;;5014833;28;19952;-70
2023/05/06 05:22:58;;;;;;;;;;;;;;;;;;5013501;28;20494;-69
2023/05/06 05:25:23;;;;;;;;;;;;;;;;;;5014117;28;19905;-69
2023/05/06 05:27:49;;;;;;;;;;;;;;;;;;4997783;28;20261;-69
2023/05/06 05:30:15;;;;;;;;;;;;;;;;;;5009161;28;19905;-68
2023/05/06 05:32:41;;;;;;;;;;;;;;;;;;4996816;28;20263;-68
2023/05/06 05:35:09;;;;;;;;;;;;;;;;;;5000439;28;19910;-69
2023/05/06 05:37:38;;;;;;;;;;;;;;;;;;4994700;28;19932;-69
2023/05/06 05:40:04;;;;;;;;;;;;;;;;;;4994577;28;19992;-71
2023/05/06 05:42:32;;;;;;;;;;;;;;;;;;4994361;28;19920;-71
2023/05/06 05:44:58;;;;;;;;;;;;;;;;;;5007248;28;19948;-72
2023/05/06 05:47:24;;;;;;;;;;;;;;;;;;4990284;28;19941;-71
2023/05/06 05:49:50;;;;;;;;;;;;;;;;;;4993651;28;19910;-70
2023/05/06 05:52:16;;;;;;;;;;;;;;;;;;4994089;28;19944;-72
2023/05/06 05:54:41;;;;;;;;;;;;;;;;;;4993877;28;19928;-72
2023/05/06 05:57:07;;;;;;;;;;;;;;;;;;4993610;28;19910;-70
2023/05/06 05:59:33;;;;;;;;;;;;;;;;;;4994496;28;19960;-71
2023/05/06 06:01:59;;;;;;;;;;;;;;;;;;4992755;28;19922;-71
2023/05/06 06:04:25;;;;;;;;;;;;;;;;;;4992502;28;19917;-70
2023/05/06 06:06:51;;;;;;;;;;;;;;;;;;5003721;28;19912;-69
2023/05/06 06:09:17;;;;;;;;;;;;;;;;;;4993922;28;19906;-70
2023/05/06 06:11:43;;;;;;;;;;;;;;;;;;4993204;28;19906;-71
2023/05/06 06:14:10;;;;;;;;;;;;;;;;;;4994189;28;19913;-70
2023/05/06 06:16:36;;;;;;;;;;;;;;;;;;4994095;28;19913;-76
2023/05/06 06:19:02;;;;;;;;;;;;;;;;;;4990643;28;19939;-71
2023/05/06 06:21:27;;;;;;;;;;;;;;;;;;4982316;28;19914;-71
2023/05/06 06:23:53;;;;;;;;;;;;;;;;;;4992267;28;19910;-70
2023/05/06 06:26:20;;;;;;;;;;;;;;;;;;4992529;28;20368;-70
2023/05/06 06:28:46;;;;;;;;;;;;;;;;;;4992960;28;19920;-70
2023/05/06 06:31:11;;;;;;;;;;;;;;;;;;4992183;28;20012;-71
2023/05/06 06:33:37;;;;;;;;;;;;;;;;;;4991790;28;19910;-71
2023/05/06 06:36:03;;;;;;;;;;;;;;;;;;4991690;28;19955;-70
2023/05/06 06:38:29;;;;;;;;;;;;;;;;;;4987432;28;19944;-69
2023/05/06 06:40:55;;;;;;;;;;;;;;;;;;4999065;28;19971;-69
2023/05/06 06:43:22;;;;;;;;;;;;;;;;;;4990902;28;20525;-71
2023/05/06 06:45:48;;;;;;;;;;;;;;;;;;4991850;28;19913;-70
2023/05/06 06:48:14;;;;;;;;;;;;;;;;;;4992028;28;19917;-69
2023/05/06 06:50:40;;;;;;;;;;;;;;;;;;4991644;28;19913;-70
2023/05/06 06:53:06;;;;;;;;;;;;;;;;;;4991701;28;19913;-69
2023/05/06 06:55:32;;;;;;;;;;;;;;;;;;4988104;28;19968;-74
2023/05/06 06:57:58;;;;;;;;;;;;;;;;;;4973867;28;19905;-73
2023/05/06 07:00:23;;;;;;;;;;;;;;;;;;4992496;28;19913;-73
2023/05/06 07:02:49;;;;;;;;;;;;;;;;;;4982291;28;20008;-70
2023/05/06 07:05:15;;;;;;;;;;;;;;;;;;4992421;28;20440;-70
2023/05/06 07:07:41;;;;;;;;;;;;;;;;;;4980742;28;19917;-71
2023/05/06 07:10:07;;;;;;;;;;;;;;;;;;4984169;28;19993;-71
2023/05/06 07:12:33;;;;;;;;;;;;;;;;;;4993867;28;19913;-69
2023/05/06 07:14:59;;;;;;;;;;;;;;;;;;4987681;28;19918;-69
2023/05/06 07:17:25;;;;;;;;;;;;;;;;;;4991495;28;20320;-70
2023/05/06 07:19:50;;;;;;;;;;;;;;;;;;5000783;28;20374;-70
2023/05/06 07:22:16;;;;;;;;;;;;;;;;;;4993687;28;19905;-68
2023/05/06 07:24:42;;;;;;;;;;;;;;;;;;5001008;28;19948;-69
2023/05/06 07:27:08;;;;;;;;;;;;;;;;;;4995183;28;19940;-69
2023/05/06 07:29:35;;;;;;;;;;;;;;;;;;4991891;28;19913;-68
2023/05/06 07:32:01;;;;;;;;;;;;;;;;;;4985790;28;19936;-72
2023/05/06 07:34:27;;;;;;;;;;;;;;;;;;4992147;28;20358;-72
2023/05/06 07:36:53;;;;;;;;;;;;;;;;;;4989548;28;19913;-70
2023/05/06 07:39:19;;;;;;;;;;;;;;;;;;4991749;28;19909;-69
2023/05/06 07:41:44;;;;;;;;;;;;;;;;;;4990232;28;19913;-69
2023/05/06 07:44:10;;;;;;;;;;;;;;;;;;4991471;28;20025;-69
2023/05/06 07:46:36;;;;;;;;;;;;;;;;;;4990843;28;19906;-72
2023/05/06 07:49:02;;;;;;;;;;;;;;;;;;4985956;28;20278;-70
2023/05/06 07:51:28;;;;;;;;;;;;;;;;;;4991091;28;20346;-68
2023/05/06 07:53:54;;;;;;;;;;;;;;;;;;4990924;28;19949;-70
2023/05/06 07:56:20;;;;;;;;;;;;;;;;;;4990860;28;20729;-70
2023/05/06 07:58:48;;;;;;;;;;;;;;;;;;4972834;28;20012;-72
2023/05/06 08:01:13;;;;;;;;;;;;;;;;;;4990879;28;19918;-71
2023/05/06 08:03:39;;;;;;;;;;;;;;;;;;5000228;28;19920;-72
2023/05/06 08:06:05;;;;;;;;;;;;;;;;;;5009082;28;20016;-74
2023/05/06 08:08:31;;;;;;;;;;;;;;;;;;4996582;28;19909;-72
2023/05/06 08:10:57;;;;;;;;;;;;;;;;;;4994353;28;19912;-73
2023/05/06 08:13:23;;;;;;;;;;;;;;;;;;4991918;28;19906;-72
2023/05/06 08:15:49;;;;;;;;;;;;;;;;;;4991862;28;19961;-73
2023/05/06 08:18:15;;;;;;;;;;;;;;;;;;4991853;28;19914;-72
2023/05/06 08:20:41;;;;;;;;;;;;;;;;;;4992168;28;20004;-72
2023/05/06 08:23:07;;;;;;;;;;;;;;;;;;4986573;28;19988;-72
2023/05/06 08:25:32;;;;;;;;;;;;;;;;;;5008217;28;19917;-72
2023/05/06 08:27:58;;;;;;;;;;;;;;;;;;4998305;28;19902;-74
2023/05/06 08:30:24;;;;;;;;;;;;;;;;;;4992083;28;19969;-72
2023/05/06 08:32:50;;;;;;;;;;;;;;;;;;4990896;28;19993;-71
2023/05/06 08:35:16;;;;;;;;;;;;;;;;;;4994773;28;19993;-72
2023/05/06 08:37:42;;;;;;;;;;;;;;;;;;5010337;28;20416;-72
2023/05/06 08:40:08;;;;;;;;;;;;;;;;;;4996831;28;19912;-71
2023/05/06 08:42:34;;;;;;;;;;;;;;;;;;4987081;28;19916;-72
2023/05/06 08:44:59;;;;;;;;;;;;;;;;;;4984839;28;19910;-76
2023/05/06 08:47:25;;;;;;;;;;;;;;;;;;4987950;28;19906;-67
2023/05/06 08:49:51;;;;;;;;;;;;;;;;;;5006467;28;20001;-72
2023/05/06 08:52:17;;;;;;;;;;;;;;;;;;4991397;28;19906;-70
2023/05/06 08:54:43;;;;;;;;;;;;;;;;;;4984942;28;19921;-69
2023/05/06 08:57:12;;;;;;;;;;;20.40;99.90;;;;;;4996794;28;19916;-69
2023/05/06 08:59:38;;;;;;;;;;;20.50;99.90;;;;;;4991622;28;19932;-79
2023/05/06 09:02:04;;;;;;;;;;;20.50;99.90;;;;;;5003694;28;19918;-71
2023/05/06 09:04:30;;;;;;;;;;;20.20;99.90;;;;;;5014438;28;19917;-71
2023/05/06 09:06:57;;;;;;;;;;;20.00;99.90;;;;;;5004215;28;19910;-71
2023/05/06 09:09:22;;;;;;;;;;;19.70;99.90;;;;;;4995273;28;20020;-72
2023/05/06 09:11:52;;;;;;;;;;;19.40;99.90;;;;;;4994597;28;19981;-71
2023/05/06 09:14:19;;;;;;;;;;;19.20;99.90;;;;;;4990232;28;19917;-72
2023/05/06 09:16:45;;;;;;;;;;;19.10;99.90;;;;;;5004453;28;20350;-71
2023/05/06 09:19:11;;;;;;;;;;;19.00;99.90;;;;;;5014580;28;19909;-69
2023/05/06 09:21:38;;;;;;;;;;;19.10;99.90;;;;;;5014260;28;19948;-73
2023/05/06 09:24:05;;;;;;;;;;;19.20;99.90;;;;;;4996250;28;19910;-70
2023/05/06 09:26:31;;;;;;;;;;;19.40;99.90;;;;;;4995206;28;19968;-71
2023/05/06 09:28:57;;;;;;;;;;;19.70;99.90;;;;;;5009369;28;19902;-71
2023/05/06 09:31:24;;;;;;;;;;;19.90;99.90;;;;;;5014455;28;20320;-69
2023/05/06 09:33:50;;;;;;;;;;;20.00;99.90;;;;;;4982011;28;20339;-71
2023/05/06 09:36:15;;;;;;;;;;;20.20;99.90;;;;;;4996900;28;19953;-71
2023/05/06 09:38:41;;;;;;;;;;;20.60;99.90;;;;;;5013205;28;19971;-73
2023/05/06 09:41:07;;;;;;;;;;;20.80;99.90;;;;;;5014374;28;20362;-73
2023/05/06 09:43:33;;;;;;;;;;;21.00;99.90;;;;;;5013868;28;19957;-72
2023/05/06 09:46:01;;;;;;;;;;;21.20;99.90;;;;;;4989526;28;19961;-72
2023/05/06 09:48:30;;;;;;;;;;;21.30;99.90;;;;;;4990435;28;19936;-73
2023/05/06 09:50:55;;;;;;;;;;;21.40;99.90;;;;;;4998289;28;20756;-73
2023/05/06 09:53:22;;;;;;;;;;;21.50;99.90;;;;;;5013409;28;19913;-73
2023/05/06 09:55:48;;;;;;;;;;;21.60;99.90;;;;;;5013489;28;20012;-72
2023/05/06 09:58:15;;;;;;;;;;;21.60;99.90;;;;;;5008831;28;19953;-73
2023/05/06 10:00:41;;;;;;;;;;;21.80;99.70;;;;;;4993890;28;19906;-72
2023/05/06 10:03:07;;;;;;;;;;;21.80;99.80;;;;;;4993268;28;19918;-72
2023/05/06 10:05:33;;;;;;;;;;;21.90;99.40;;;;;;4994391;28;20365;-72
2023/05/06 10:08:00;;;;;;;;;;;21.80;99.60;;;;;;4993232;28;19936;-73
2023/05/06 10:10:26;;;;;;;;;;;22.00;99.50;;;;;;5013200;28;20424;-72
2023/05/06 10:12:52;;;;;;;;;;;22.20;98.70;;;;;;5012528;28;19905;-73
2023/05/06 10:15:18;;;;;;;;;;;22.10;98.30;;;;;;5013839;28;19909;-72
2023/05/06 10:17:46;;;;;;;;;;;21.90;98.80;;;;;;5012146;28;20322;-72
2023/05/06 10:20:12;;;;;;;;;;;21.60;98.80;;;;;;5001710;28;19906;-72
2023/05/06 10:23:02;;;;;;;;;;;21.30;99.30;;;;;;4998455;28;20251;-72
2023/05/06 10:25:33;;;;;;;;;;;21.00;99.50;;;;;;4991591;28;19910;-72
2023/05/06 10:28:00;;;;;;;;;;;20.70;99.90;;;;;;5000175;28;19956;-73
2023/05/06 10:30:26;;;;;;;;;;;20.60;99.90;;;;;;4993297;28;19986;-72
2023/05/06 10:32:55;;;;;;;;;;;20.70;99.90;;;;;;4998960;28;19906;-73
2023/05/06 10:35:29;;;;;;;;;;;21.00;99.40;;;;;;5007341;28;19917;-73
2023/05/06 10:37:55;;;;;;;;;;;21.30;99.10;;;;;;5010840;28;20676;-73
2023/05/06 10:40:21;;;;;;;;;;;21.50;99.50;;;;;;5001008;28;19957;-74
2023/05/06 10:42:47;;;;;;;;;;;21.70;98.90;;;;;;5002852;28;20075;-72
2023/05/06 10:45:14;;;;;;;;;;;21.80;99.00;;;;;;5006374;28;20419;-72
2023/05/06 10:47:51;;;;;;;;;;;21.90;98.10;;;;;;4983610;28;19951;-72
2023/05/06 10:50:17;;;;;;;;;;;22.10;97.50;;;;;;4987429;28;19906;-71
2023/05/06 10:52:43;;;;;;;;;;;22.30;97.40;;;;;;4985133;28;19996;-72
2023/05/06 10:55:23;;;;;;;;;;;22.60;97.10;;;;;;4989629;28;20373;-72
2023/05/06 10:57:52;;;;;;;;;;;22.70;97.00;;;;;;4991746;28;19917;-72
2023/05/06 11:00:18;;;;;;;;;;;22.90;96.50;;;;;;4993258;28;20360;-72
2023/05/06 11:02:43;;;;;;;;;;;23.00;96.90;;;;;;4991400;28;19989;-72
2023/05/06 11:05:09;;;;;;;;;;;22.90;96.20;;;;;;4993072;28;19913;-72
2023/05/06 11:07:35;;;;;;;;;;;22.80;95.90;;;;;;4998447;28;19909;-72
2023/05/06 11:10:04;;;;;;;;;;;22.60;96.00;;;;;;4988694;28;19967;-70
2023/05/06 11:12:42;;;;;;;;;;;22.50;95.00;;;;;;4986821;28;19914;-71
2023/05/06 11:15:42;;;;;;;;;;;22.20;95.20;;;;;;4985806;28;19921;-71
2023/05/06 11:18:23;;;;;;;;;;;22.00;95.50;;;;;;4968243;28;19921;-71
2023/05/06 11:20:49;;;;;;;;;;;22.00;95.90;;;;;;4991853;28;19967;-70
2023/05/06 11:23:15;;;;;;;;;;;22.20;95.70;;;;;;4986930;28;19964;-71
2023/05/06 11:25:41;;;;;;;;;;;22.40;95.50;;;;;;4991515;28;19906;-71
2023/05/06 11:28:11;;;;;;;;;;;22.80;94.70;;;;;;4985150;28;19905;-71
2023/05/06 11:30:40;;;;;;;;;;;23.00;94.00;;;;;;5012029;28;19905;-70
2023/05/06 11:33:06;;;;;;;;;;;23.30;93.40;;;;;;4986809;28;19918;-70
2023/05/06 11:35:36;;;;;;;;;;;23.50;93.60;;;;;;4975561;28;20278;-71
2023/05/06 11:38:01;;;;;;;;;;;23.70;93.20;;;;;;4990742;28;19921;-71
2023/05/06 11:40:30;;;;;;;;;;;24.00;92.60;;;;;;4991194;28;19910;-72
2023/05/06 11:43:14;;;;;;;;;;;24.20;91.60;;;;;;4989935;28;19909;-71
2023/05/06 11:45:40;;;;;;;;;;;24.10;91.20;;;;;;4990002;28;19918;-74
2023/05/06 11:48:06;;;;;;;;;;;24.10;90.50;;;;;;4990088;28;19961;-73
2023/05/06 11:50:31;;;;;;;;;;;24.20;90.60;;;;;;4986136;28;19914;-75
2023/05/06 11:52:57;;;;;;;;;;;24.30;88.70;;;;;;4990258;28;20553;-75
2023/05/06 11:55:22;;;;;;;;;;;24.40;89.30;;;;;;4991369;28;19956;-73
2023/05/06 11:57:48;;;;;;;;;;;24.50;88.90;;;;;;4989716;28;19910;-73
2023/05/06 12:00:14;;;;;;;;;;;24.60;87.50;;;;;;4991588;28;19917;-74
2023/05/06 12:02:40;;;;;;;;;;;24.80;87.90;;;;;;4988890;28;19925;-72
2023/05/06 12:05:05;;;;;;;;;;;25.10;85.90;;;;;;4988972;28;19973;-81
2023/05/06 12:07:31;;;;;;;;;;;25.40;84.70;;;;;;4988874;28;19906;-75
2023/05/06 12:09:57;;;;;;;;;;;25.70;84.40;;;;;;4998620;28;20342;-78
2023/05/06 12:12:23;;;;;;;;;;;25.80;82.70;;;;;;5006906;28;19985;-76
2023/05/06 12:14:49;;;;;;;;;;;25.60;82.70;;;;;;4990678;28;19918;-79
2023/05/06 12:17:15;;;;;;;;;;;25.60;82.60;;;;;;4991366;28;19910;-81
2023/05/06 12:19:40;;;;;;;;;;;25.90;99.90;;;;;;4989345;28;19914;-80
2023/05/06 12:22:12;;;;;;;;;;;26.60;90.00;;;;;;4991175;28;20255;-79
2023/05/06 12:24:38;;;;;;;;;;;26.60;80.00;;;;;;4986520;28;19914;-74
2023/05/06 12:27:04;;;;;;;;;;;;;;;;;;4991069;28;19906;-82
2023/05/06 12:29:31;;;;;;;;;;;27.00;78.10;;;;;;4991280;28;20350;-78
2023/05/06 12:32:09;;;;;;;;;;;26.90;78.70;;;;;;4989697;28;20470;-80
2023/05/06 12:34:36;;;;;;;;;;;26.60;79.50;;;;;;4994528;28;19932;-80
2023/05/06 12:37:01;;;;;;;;;;;26.10;78.90;;;;;;4994406;28;19936;-77
2023/05/06 12:39:32;;;;;;;;;;;25.30;79.00;;;;;;4977529;28;20306;-78
2023/05/06 12:41:58;;;;;;;;;;;24.80;80.80;;;;;;4990339;28;19917;-78
2023/05/06 12:44:31;;;;;;;;;;;24.30;81.20;;;;;;4996386;28;20571;-75
2023/05/06 12:46:58;;;;;;;;;;;23.90;83.60;;;;;;4993392;28;20613;-76
2023/05/06 12:49:23;;;;;;;;;;;23.60;83.90;;;;;;4995665;28;19948;-75
2023/05/06 12:52:08;;;;;;;;;;;23.50;84.30;;;;;;4992983;28;20015;-76
2023/05/06 12:54:33;;;;;;;;;;;23.80;83.30;;;;;;4994538;28;20437;-75
2023/05/06 12:56:59;;;;;;;;;;;24.00;82.30;;;;;;4993733;28;20060;-76
2023/05/06 12:59:25;;;;;;;;;;;24.00;82.80;;;;;;4996105;28;20351;-75
2023/05/06 13:01:51;;;;;;;;;;;23.90;82.10;;;;;;4985040;28;19918;-76
2023/05/06 13:04:16;;;;;;;;;;;23.90;83.70;;;;;;4994616;28;19906;-76
2023/05/06 13:06:42;;;;;;;;;;;23.90;83.50;;;;;;4993191;28;19960;-75
2023/05/06 13:09:08;;;;;;;;;;;24.00;82.60;;;;;;4991170;28;20417;-76
2023/05/06 13:11:34;;;;;;;;;;;24.00;83.20;;;;;;4994329;28;19960;-77
2023/05/06 13:13:59;;;;;;;;;;;24.20;83.40;;;;;;4993543;28;19910;-78
2023/05/06 13:16:25;;;;;;;;;;;24.30;82.70;;;;;;4994255;28;19921;-75
2023/05/06 13:18:50;;;;;;;;;;;24.20;82.50;;;;;;4993613;28;20411;-76
2023/05/06 13:21:16;;;;;;;;;;;24.30;81.50;;;;;;4994499;28;19912;-75
2023/05/06 13:23:46;;;;;;;;;;;24.50;81.90;;;;;;4993142;28;20000;-76
2023/05/06 13:26:12;;;;;;;;;;;24.80;80.70;;;;;;4991557;28;20432;-79
2023/05/06 13:28:38;;;;;;;;;;;24.90;80.50;;;;;;4993715;28;20004;-73
2023/05/06 13:31:04;;;;;;;;;;;25.00;80.20;;;;;;4993813;28;20666;-78
2023/05/06 13:33:30;;;;;;;;;;;24.90;78.80;;;;;;4994141;28;19910;-76
2023/05/06 13:35:55;;;;;;;;;;;24.50;80.30;;;;;;4993650;28;19913;-78
2023/05/06 13:38:21;;;;;;;;;;;24.50;80.90;;;;;;4993642;28;19964;-78
2023/05/06 13:40:50;;;;;;;;;;;24.60;80.10;;;;;;4992268;28;19906;-76
2023/05/06 13:43:16;;;;;;;;;;;24.30;78.30;;;;;;4993267;28;19910;-77
2023/05/06 13:45:42;;;;;;;;;;;24.40;79.50;;;;;;4992297;28;19913;-77
2023/05/06 13:48:08;;;;;;;;;;;24.10;79.30;;;;;;4994062;28;20048;-78
2023/05/06 13:50:34;;;;;;;;;;;24.10;80.30;;;;;;4996331;28;19937;-77
2023/05/06 13:53:00;;;;;;;;;;;24.20;79.40;;;;;;4995212;28;20354;-78
2023/05/06 13:55:25;;;;;;;;;;;24.10;80.80;;;;;;4993155;28;20004;-77
2023/05/06 13:57:51;;;;;;;;;;;24.20;79.70;;;;;;4987570;28;19921;-79
2023/05/06 14:00:16;;;;;;;;;;;24.40;80.30;;;;;;4993711;28;19918;-80
2023/05/06 14:02:42;;;;;;;;;;;24.60;79.70;;;;;;4991787;28;19918;-79
2023/05/06 14:05:08;;;;;;;;;;;24.90;77.30;;;;;;4994106;28;20477;-77
2023/05/06 14:07:33;;;;;;;;;;;24.90;77.00;;;;;;4993318;28;19933;-77
2023/05/06 14:09:59;;;;;;;;;;;25.10;78.70;;;;;;4993480;28;20309;-82
2023/05/06 14:12:25;;;;;;;;;;;25.20;76.60;;;;;;4994187;28;19909;-83
2023/05/06 14:14:50;;;;;;;;;;;25.20;76.60;;;;;;4998387;28;19913;-85
2023/05/06 14:17:16;;;;;;;;;;;25.10;76.20;;;;;;4981146;28;19947;-79
2023/05/06 14:19:41;;;;;;;;;;;25.00;77.10;;;;;;4993738;28;20357;-79
2023/05/06 14:22:07;;;;;;;;;;;25.00;76.40;;;;;;4992779;28;20340;-80
2023/05/06 14:24:32;;;;;;;;;;;25.10;76.10;;;;;;4993824;28;19910;-80
2023/05/06 14:26:58;;;;;;;;;;;25.20;77.50;;;;;;4995202;28;19921;-82
2023/05/06 14:29:23;;;;;;;;;;;25.10;76.10;;;;;;5014456;28;19945;-82
2023/05/06 14:31:49;;;;;;;;;;;25.10;75.40;;;;;;4990422;28;19937;-80
2023/05/06 14:34:14;;;;;;;;;;;25.20;77.20;;;;;;4995758;28;19909;-80
2023/05/06 14:36:40;;;;;;;;;;;25.20;76.20;;;;;;4991844;28;19913;-75
2023/05/06 14:39:06;;;;;;;;;;;25.20;74.10;;;;;;4992696;28;19914;-84
2023/05/06 14:41:31;;;;;;;;;;;25.20;76.00;;;;;;4992034;28;20381;-81
2023/05/06 14:43:57;;;;;;;;;;;25.20;75.70;;;;;;4990908;28;19906;-79
2023/05/06 14:46:22;;;;;;;;;;;25.20;74.80;;;;;;4992621;28;19982;-81
2023/05/06 14:48:48;;;;;;;;;;;25.20;75.80;;;;;;4988224;28;19952;-80
2023/05/06 14:51:13;;;;;;;;;;;25.30;73.40;;;;;;4995864;28;19910;-80
2023/05/06 14:53:39;;;;;;;;;;;25.20;73.40;;;;;;4991484;28;19909;-73
2023/05/06 14:56:06;;;;;;;;;;;25.10;75.30;;;;;;4992587;28;19932;-80
2023/05/06 14:58:31;;;;;;;;;;;25.00;73.50;;;;;;4992421;28;19916;-77
2023/05/06 15:00:57;;;;;;;;;;;24.90;73.70;;;;;;4991843;28;20570;-86
2023/05/06 15:03:22;;;;;;;;;;;24.80;73.00;;;;;;4991707;28;19912;-72